createdAt,value
2022-10-31T00:00:48.323Z,7.86
2022-10-31T00:03:15.738Z,7.78
2022-10-31T00:05:47.938Z,7.82
2022-10-31T00:08:15.317Z,7.80
2022-10-31T00:10:43.026Z,7.82
2022-10-31T00:13:11.028Z,7.83
2022-10-31T00:15:39.811Z,7.84
2022-10-31T00:18:08.049Z,7.74
2022-10-31T00:20:35.437Z,7.76
2022-10-31T00:23:03.511Z,7.72
2022-10-31T00:25:35.030Z,7.66
2022-10-31T00:28:02.154Z,7.63
2022-10-31T00:30:29.095Z,7.67
2022-10-31T00:32:55.864Z,7.64
2022-10-31T00:35:22.704Z,7.54
2022-10-31T00:37:49.271Z,7.48
2022-10-31T00:40:15.907Z,7.39
2022-10-31T00:42:42.600Z,7.42
2022-10-31T00:45:10.784Z,7.39
2022-10-31T00:47:38.084Z,7.40
2022-10-31T00:50:09.346Z,7.44
2022-10-31T00:52:35.967Z,7.42
2022-10-31T00:55:02.732Z,7.39
2022-10-31T00:57:29.369Z,7.36
2022-10-31T00:59:55.999Z,7.36
2022-10-31T01:02:22.823Z,7.34
2022-10-31T01:04:49.554Z,7.35
2022-10-31T01:07:16.231Z,7.32
2022-10-31T01:09:42.833Z,7.17
2022-10-31T01:12:09.627Z,7.15
2022-10-31T01:14:36.320Z,7.04
2022-10-31T01:17:03.016Z,6.89
2022-10-31T01:19:29.843Z,7.00
2022-10-31T01:21:56.479Z,7.05
2022-10-31T01:24:23.139Z,7.06
2022-10-31T01:26:49.759Z,7.11
2022-10-31T01:29:16.454Z,7.12
2022-10-31T01:31:43.108Z,6.99
2022-10-31T01:34:14.665Z,6.88
2022-10-31T01:36:42.108Z,6.76
2022-10-31T01:39:12.231Z,6.86
2022-10-31T01:41:42.458Z,6.91
2022-10-31T01:44:14.767Z,6.95
2022-10-31T01:46:47.775Z,6.94
2022-10-31T01:49:19.364Z,6.89
2022-10-31T01:52:15.010Z,6.91
2022-10-31T01:54:46.635Z,6.87
2022-10-31T01:57:15.819Z,6.72
2022-10-31T01:59:50.279Z,6.72
2022-10-31T02:02:19.618Z,6.71
2022-10-31T02:04:48.432Z,6.70
2022-10-31T02:07:19.338Z,6.70
2022-10-31T02:09:48.641Z,6.68
2022-10-31T02:12:16.911Z,6.66
2022-10-31T02:14:43.647Z,6.59
2022-10-31T02:17:10.334Z,6.58
2022-10-31T02:19:49.730Z,6.62
2022-10-31T02:22:40.119Z,6.60
2022-10-31T02:25:27.327Z,6.49
2022-10-31T02:27:59.917Z,6.56
2022-10-31T02:30:38.342Z,6.45
2022-10-31T02:33:10.787Z,6.45
2022-10-31T02:35:51.144Z,6.48
2022-10-31T02:39:09.009Z,6.33
2022-10-31T02:41:41.383Z,6.34
2022-10-31T02:44:23.077Z,6.33
2022-10-31T02:46:53.853Z,6.37
2022-10-31T02:49:42.334Z,6.21
2022-10-31T02:52:18.825Z,6.17
2022-10-31T02:54:47.372Z,6.23
2022-10-31T02:57:15.900Z,6.12
2022-10-31T02:59:48.541Z,6.18
2022-10-31T03:02:20.934Z,6.24
2022-10-31T03:04:57.945Z,6.26
2022-10-31T03:07:43.333Z,6.27
2022-10-31T03:10:19.509Z,6.31
2022-10-31T03:13:11.735Z,6.26
2022-10-31T03:15:52.705Z,6.17
2022-10-31T03:18:25.950Z,6.21
2022-10-31T03:21:06.784Z,6.19
2022-10-31T03:23:36.521Z,6.20
2022-10-31T03:26:06.145Z,6.15
2022-10-31T03:28:44.359Z,6.00
2022-10-31T03:31:13.712Z,6.05
2022-10-31T03:33:43.392Z,6.05
2022-10-31T03:36:12.941Z,5.92
2022-10-31T03:38:41.751Z,5.83
2022-10-31T03:41:14.228Z,5.87
2022-10-31T03:43:47.246Z,5.95
2022-10-31T03:46:13.961Z,5.92
2022-10-31T03:48:40.635Z,5.74
2022-10-31T03:51:25.771Z,5.57
2022-10-31T03:54:14.208Z,5.65
2022-10-31T03:57:03.837Z,5.68
2022-10-31T03:59:37.622Z,5.72
2022-10-31T04:02:09.278Z,5.68
2022-10-31T04:04:37.935Z,5.71
2022-10-31T04:07:07.620Z,5.76
2022-10-31T04:09:37.755Z,5.77
2022-10-31T04:12:09.558Z,5.76
2022-10-31T04:14:40.122Z,5.77
2022-10-31T04:17:11.421Z,5.80
2022-10-31T04:19:38.080Z,5.76
2022-10-31T04:22:05.071Z,5.74
2022-10-31T04:24:31.714Z,5.72
2022-10-31T04:26:58.842Z,5.70
2022-10-31T04:29:25.440Z,5.71
2022-10-31T04:31:52.137Z,5.73
2022-10-31T04:34:18.735Z,5.72
2022-10-31T04:36:46.327Z,5.71
2022-10-31T04:39:12.898Z,5.71
2022-10-31T04:41:39.523Z,5.71
2022-10-31T04:44:06.827Z,5.65
2022-10-31T04:46:33.463Z,5.65
2022-10-31T04:49:00.095Z,5.68
2022-10-31T04:51:26.689Z,5.66
2022-10-31T04:53:53.272Z,5.57
2022-10-31T04:56:19.958Z,5.49
2022-10-31T04:58:46.555Z,5.49
2022-10-31T05:01:13.898Z,5.39
2022-10-31T05:03:40.623Z,5.44
2022-10-31T05:06:08.034Z,5.44
2022-10-31T05:08:34.727Z,5.45
2022-10-31T05:11:04.419Z,5.40
2022-10-31T05:13:31.938Z,5.40
2022-10-31T05:15:58.578Z,5.35
2022-10-31T05:18:25.235Z,5.39
2022-10-31T05:20:51.885Z,5.39
2022-10-31T05:23:18.498Z,5.35
2022-10-31T05:25:45.082Z,5.37
2022-10-31T05:28:11.687Z,5.31
2022-10-31T05:30:38.298Z,5.33
2022-10-31T05:33:04.880Z,5.30
2022-10-31T05:35:33.366Z,5.32
2022-10-31T05:38:00.718Z,5.29
2022-10-31T05:40:28.358Z,5.23
2022-10-31T05:42:57.280Z,5.13
2022-10-31T05:45:24.330Z,5.18
2022-10-31T05:47:56.189Z,5.25
2022-10-31T05:50:23.901Z,5.25
2022-10-31T05:52:57.136Z,5.27
2022-10-31T05:55:23.949Z,5.28
2022-10-31T05:57:50.553Z,5.26
2022-10-31T06:00:17.344Z,5.30
2022-10-31T06:02:43.925Z,5.26
2022-10-31T06:05:10.617Z,5.24
2022-10-31T06:07:37.560Z,5.29
2022-10-31T06:10:06.897Z,5.26
2022-10-31T06:12:38.396Z,5.22
2022-10-31T06:15:06.881Z,5.15
2022-10-31T06:17:34.960Z,5.38
2022-10-31T06:20:02.118Z,5.49
2022-10-31T06:22:29.107Z,5.51
2022-10-31T06:24:55.780Z,5.68
2022-10-31T06:27:22.661Z,5.85
2022-10-31T06:29:49.301Z,5.74
2022-10-31T06:32:16.600Z,5.82
2022-10-31T06:34:44.058Z,6.03
2022-10-31T06:37:13.005Z,6.15
2022-10-31T06:39:39.627Z,6.29
2022-10-31T06:42:06.226Z,6.47
2022-10-31T06:44:33.382Z,6.38
2022-10-31T06:47:00.135Z,6.55
2022-10-31T06:49:26.745Z,6.64
2022-10-31T06:51:53.439Z,6.86
2022-10-31T06:54:20.075Z,6.81
2022-10-31T06:56:48.121Z,7.23
2022-10-31T06:59:15.685Z,7.26
2022-10-31T07:01:42.588Z,7.59
2022-10-31T07:04:12.656Z,7.94
2022-10-31T07:06:39.469Z,8.66
2022-10-31T07:09:06.252Z,9.70
2022-10-31T07:11:32.873Z,10.50
2022-10-31T07:13:59.514Z,10.59
2022-10-31T07:16:26.188Z,10.96
2022-10-31T07:18:52.904Z,10.54
2022-10-31T07:21:19.564Z,10.75
2022-10-31T07:23:49.085Z,11.74
2022-10-31T07:26:15.831Z,12.27
2022-10-31T07:28:42.454Z,12.35
2022-10-31T07:31:09.045Z,12.83
2022-10-31T07:33:35.644Z,13.47
2022-10-31T07:36:02.221Z,13.24
2022-10-31T07:38:28.881Z,12.74
2022-10-31T07:40:55.518Z,12.82
2022-10-31T07:43:22.488Z,13.30
2022-10-31T07:45:53.539Z,13.09
2022-10-31T07:48:20.778Z,13.24
2022-10-31T07:50:47.740Z,13.58
2022-10-31T07:53:15.663Z,13.91
2022-10-31T07:55:42.814Z,14.25
2022-10-31T07:58:12.965Z,14.81
2022-10-31T08:00:42.119Z,14.58
2022-10-31T08:03:11.809Z,14.38
2022-10-31T08:05:39.268Z,14.68
2022-10-31T08:08:06.079Z,15.02
2022-10-31T08:10:34.172Z,15.54
2022-10-31T08:13:10.092Z,15.93
2022-10-31T08:15:39.126Z,15.92
2022-10-31T08:18:07.188Z,16.26
2022-10-31T08:20:34.124Z,16.20
2022-10-31T08:23:03.422Z,17.44
2022-10-31T08:25:35.358Z,16.44
2022-10-31T08:28:06.115Z,17.36
2022-10-31T08:30:35.476Z,18.39
2022-10-31T08:33:16.500Z,18.48
2022-10-31T08:35:43.473Z,18.78
2022-10-31T08:38:12.315Z,18.41
2022-10-31T08:40:39.529Z,19.85
2022-10-31T08:43:17.919Z,18.06
2022-10-31T08:45:48.241Z,19.10
2022-10-31T08:48:16.894Z,18.05
2022-10-31T08:50:45.123Z,17.89
2022-10-31T08:53:17.182Z,18.36
2022-10-31T08:55:45.532Z,19.42
2022-10-31T08:58:15.131Z,20.23
2022-10-31T09:00:42.509Z,21.22
2022-10-31T09:03:15.871Z,22.37
2022-10-31T09:05:42.891Z,22.90
2022-10-31T09:08:15.757Z,23.03
2022-10-31T09:10:44.121Z,21.89
2022-10-31T09:13:16.198Z,22.82
2022-10-31T09:15:44.954Z,22.58
2022-10-31T09:18:13.357Z,21.91
2022-10-31T09:20:41.563Z,22.33
2022-10-31T09:23:11.632Z,23.08
2022-10-31T09:25:38.907Z,22.78
2022-10-31T09:28:07.621Z,22.50
2022-10-31T09:30:36.104Z,22.94
2022-10-31T09:33:05.317Z,22.67
2022-10-31T09:35:32.626Z,22.96
2022-10-31T09:38:01.708Z,24.37
2022-10-31T09:40:35.144Z,24.35
2022-10-31T09:43:34.281Z,24.81
2022-10-31T09:46:27.583Z,23.74
2022-10-31T09:49:05.413Z,24.48
2022-10-31T09:51:35.883Z,25.31
2022-10-31T09:54:14.585Z,25.67
2022-10-31T09:56:41.467Z,23.85
2022-10-31T09:59:20.108Z,23.97
2022-10-31T10:01:56.223Z,20.54
2022-10-31T10:04:41.640Z,23.97
2022-10-31T10:07:20.385Z,22.44
2022-10-31T10:09:47.410Z,23.50
2022-10-31T10:12:29.980Z,24.08
2022-10-31T10:15:24.715Z,25.65
2022-10-31T10:18:06.153Z,27.75
2022-10-31T10:21:07.468Z,27.32
2022-10-31T10:23:55.794Z,27.35
2022-10-31T10:26:27.440Z,26.31
2022-10-31T10:29:22.251Z,27.88
2022-10-31T10:31:52.620Z,27.63
2022-10-31T10:34:27.409Z,25.95
2022-10-31T10:36:56.685Z,26.16
2022-10-31T10:39:41.521Z,25.11
2022-10-31T10:42:34.949Z,23.87
2022-10-31T10:45:33.424Z,24.76
2022-10-31T10:48:10.779Z,25.21
2022-10-31T10:50:42.561Z,24.78
2022-10-31T10:53:50.011Z,24.95
2022-10-31T10:56:32.120Z,24.78
2022-10-31T10:58:59.053Z,24.43
2022-10-31T11:01:26.293Z,25.23
2022-10-31T11:03:52.907Z,24.82
2022-10-31T11:06:26.695Z,25.30
2022-10-31T11:08:54.297Z,23.09
2022-10-31T11:11:26.825Z,22.94
2022-10-31T11:14:01.087Z,22.05
2022-10-31T11:16:27.744Z,21.35
2022-10-31T11:18:54.918Z,20.94
2022-10-31T11:21:26.652Z,20.88
2022-10-31T11:24:11.667Z,20.95
2022-10-31T11:26:40.319Z,20.66
2022-10-31T11:29:14.565Z,20.42
2022-10-31T11:31:41.683Z,20.12
2022-10-31T11:34:35.474Z,19.94
2022-10-31T11:37:17.099Z,19.98
2022-10-31T11:39:54.404Z,19.54
2022-10-31T11:42:37.606Z,20.01
2022-10-31T11:45:15.380Z,20.05
2022-10-31T11:47:47.321Z,19.84
2022-10-31T11:50:22.911Z,19.27
2022-10-31T11:52:50.579Z,19.08
2022-10-31T11:55:39.259Z,19.14
2022-10-31T11:58:20.326Z,19.38
2022-10-31T12:00:54.142Z,19.64
2022-10-31T12:03:23.698Z,19.56
2022-10-31T12:06:20.589Z,19.40
2022-10-31T12:08:47.664Z,19.59
2022-10-31T12:11:38.782Z,19.88
2022-10-31T12:14:14.187Z,20.07
2022-10-31T12:16:51.893Z,20.26
2022-10-31T12:19:36.022Z,20.53
2022-10-31T12:22:20.876Z,20.01
2022-10-31T12:25:06.695Z,20.70
2022-10-31T12:27:41.979Z,21.12
2022-10-31T12:30:21.108Z,20.60
2022-10-31T12:33:12.299Z,20.36
2022-10-31T12:35:56.227Z,20.46
2022-10-31T12:38:40.379Z,20.97
2022-10-31T12:41:37.412Z,20.50
2022-10-31T12:44:16.836Z,20.50
2022-10-31T12:47:01.056Z,20.89
2022-10-31T12:49:45.642Z,20.95
2022-10-31T12:52:28.003Z,21.41
2022-10-31T12:55:20.671Z,21.63
2022-10-31T12:57:53.592Z,21.61
2022-10-31T13:00:22.615Z,21.94
2022-10-31T13:03:12.046Z,22.00
2022-10-31T13:05:42.071Z,22.09
2022-10-31T13:08:17.310Z,21.51
2022-10-31T13:11:33.382Z,21.86
2022-10-31T13:14:19.597Z,21.66
2022-10-31T13:16:48.769Z,21.63
2022-10-31T13:19:23.282Z,21.69
2022-10-31T13:22:13.999Z,21.52
2022-10-31T13:24:45.370Z,21.34
2022-10-31T13:27:39.918Z,21.24
2022-10-31T13:30:17.416Z,21.10
2022-10-31T13:33:14.977Z,21.14
2022-10-31T13:35:41.557Z,21.02
2022-10-31T13:38:31.885Z,20.91
2022-10-31T13:41:03.320Z,20.52
2022-10-31T13:43:40.911Z,20.43
2022-10-31T13:46:27.063Z,20.55
2022-10-31T13:48:53.782Z,20.36
2022-10-31T13:51:36.044Z,20.61
2022-10-31T13:54:20.172Z,20.14
2022-10-31T13:56:51.317Z,19.95
2022-10-31T13:59:22.096Z,20.05
2022-10-31T14:01:58.284Z,20.01
2022-10-31T14:04:29.116Z,19.99
2022-10-31T14:07:09.008Z,20.11
2022-10-31T14:10:21.237Z,20.04
2022-10-31T14:12:49.855Z,20.01
2022-10-31T14:15:20.909Z,19.94
2022-10-31T14:17:53.462Z,19.79
2022-10-31T14:20:20.606Z,19.82
2022-10-31T14:22:47.325Z,19.73
2022-10-31T14:25:36.224Z,19.84
2022-10-31T14:28:19.829Z,19.88
2022-10-31T14:30:58.619Z,19.51
2022-10-31T14:33:28.766Z,19.04
2022-10-31T14:36:07.080Z,18.77
2022-10-31T14:39:01.726Z,18.51
2022-10-31T14:42:25.447Z,18.19
2022-10-31T14:45:23.457Z,18.18
2022-10-31T14:48:17.228Z,17.93
2022-10-31T14:50:50.168Z,17.88
2022-10-31T14:53:30.366Z,17.85
2022-10-31T14:56:01.498Z,17.67
2022-10-31T14:58:47.227Z,17.49
2022-10-31T15:01:35.915Z,17.47
2022-10-31T15:04:23.592Z,17.79
2022-10-31T15:06:58.852Z,17.48
2022-10-31T15:09:31.567Z,17.15
2022-10-31T15:12:15.767Z,17.58
2022-10-31T15:14:42.367Z,17.73
2022-10-31T15:17:12.555Z,17.78
2022-10-31T15:19:39.855Z,17.65
2022-10-31T15:22:06.672Z,17.54
2022-10-31T15:24:38.423Z,17.31
2022-10-31T15:27:05.893Z,17.24
2022-10-31T15:29:32.542Z,17.10
2022-10-31T15:32:01.526Z,16.93
2022-10-31T15:34:40.377Z,16.71
2022-10-31T15:37:15.689Z,16.63
2022-10-31T15:39:43.811Z,16.42
2022-10-31T15:42:24.790Z,16.18
2022-10-31T15:45:06.027Z,16.05
2022-10-31T15:47:33.838Z,15.94
2022-10-31T15:50:02.790Z,15.88
2022-10-31T15:52:36.041Z,15.74
2022-10-31T15:55:17.581Z,15.50
2022-10-31T15:57:48.693Z,15.37
2022-10-31T16:00:24.830Z,15.08
2022-10-31T16:03:02.228Z,14.91
2022-10-31T16:05:38.236Z,14.84
2022-10-31T16:08:05.773Z,14.81
2022-10-31T16:10:36.224Z,14.82
2022-10-31T16:13:04.015Z,14.79
2022-10-31T16:15:30.880Z,14.65
2022-10-31T16:18:01.437Z,14.51
2022-10-31T16:20:32.923Z,14.31
2022-10-31T16:23:00.495Z,13.92
2022-10-31T16:25:29.753Z,13.96
2022-10-31T16:28:05.233Z,14.04
2022-10-31T16:30:42.789Z,13.92
2022-10-31T16:33:25.406Z,13.87
2022-10-31T16:35:56.116Z,13.82
2022-10-31T16:38:31.072Z,13.71
2022-10-31T16:40:57.800Z,13.65
2022-10-31T16:43:24.991Z,13.60
2022-10-31T16:45:52.992Z,13.57
2022-10-31T16:48:22.437Z,13.58
2022-10-31T16:50:50.599Z,13.56
2022-10-31T16:53:18.419Z,13.46
2022-10-31T16:56:04.825Z,13.37
2022-10-31T16:58:36.052Z,13.19
2022-10-31T17:01:05.748Z,13.18
2022-10-31T17:03:32.507Z,13.04
2022-10-31T17:05:59.108Z,12.91
2022-10-31T17:08:26.237Z,12.86
2022-10-31T17:10:55.478Z,12.85
2022-10-31T17:13:29.996Z,12.78
2022-10-31T17:15:59.848Z,12.75
2022-10-31T17:18:27.830Z,12.69
2022-10-31T17:21:02.602Z,12.49
2022-10-31T17:23:29.931Z,12.54
2022-10-31T17:25:57.074Z,12.37
2022-10-31T17:28:23.786Z,12.30
2022-10-31T17:30:50.541Z,12.24
2022-10-31T17:33:17.669Z,12.17
2022-10-31T17:35:45.146Z,12.19
2022-10-31T17:38:12.421Z,12.24
2022-10-31T17:40:42.133Z,12.19
2022-10-31T17:43:10.357Z,12.09
2022-10-31T17:45:39.792Z,12.06
2022-10-31T17:48:06.910Z,12.05
2022-10-31T17:50:33.668Z,11.90
2022-10-31T17:53:00.648Z,11.76
2022-10-31T17:55:28.411Z,11.64
2022-10-31T17:57:57.211Z,11.66
2022-10-31T18:00:24.830Z,11.58
2022-10-31T18:02:51.774Z,11.30
2022-10-31T18:05:18.526Z,11.47
2022-10-31T18:07:45.455Z,11.45
2022-10-31T18:10:12.181Z,11.31
2022-10-31T18:12:39.221Z,11.42
2022-10-31T18:15:06.390Z,11.47
2022-10-31T18:17:34.912Z,11.29
2022-10-31T18:20:03.915Z,11.31
2022-10-31T18:22:30.511Z,11.30
2022-10-31T18:25:01.814Z,11.29
2022-10-31T18:27:28.969Z,11.36
2022-10-31T18:29:55.717Z,11.30
2022-10-31T18:32:22.340Z,11.23
2022-10-31T18:34:49.035Z,11.15
2022-10-31T18:37:15.685Z,11.23
2022-10-31T18:39:42.331Z,11.07
2022-10-31T18:42:08.951Z,10.98
2022-10-31T18:44:35.591Z,11.04
2022-10-31T18:47:02.227Z,11.03
2022-10-31T18:49:32.657Z,11.04
2022-10-31T18:51:59.984Z,11.01
2022-10-31T18:54:26.692Z,11.07
2022-10-31T18:56:53.480Z,11.03
2022-10-31T18:59:20.103Z,11.11
2022-10-31T19:01:46.951Z,11.11
2022-10-31T19:04:14.142Z,11.12
2022-10-31T19:06:40.860Z,11.13
2022-10-31T19:09:11.052Z,11.08
2022-10-31T19:11:38.550Z,11.14
2022-10-31T19:14:06.419Z,11.15
2022-10-31T19:16:33.025Z,11.16
2022-10-31T19:19:00.083Z,11.19
2022-10-31T19:21:27.386Z,11.02
2022-10-31T19:23:56.141Z,10.98
2022-10-31T19:26:22.906Z,11.00
2022-10-31T19:28:49.577Z,11.07
2022-10-31T19:31:16.354Z,11.08
2022-10-31T19:33:42.937Z,11.00
2022-10-31T19:36:14.919Z,10.91
2022-10-31T19:38:44.539Z,10.93
2022-10-31T19:41:23.790Z,10.95
2022-10-31T19:43:50.604Z,10.95
2022-10-31T19:46:22.718Z,10.91
2022-10-31T19:49:01.119Z,10.66
2022-10-31T19:51:28.153Z,10.78
2022-10-31T19:53:54.866Z,10.80
2022-10-31T19:56:23.586Z,10.77
2022-10-31T19:58:51.657Z,10.75
2022-10-31T20:01:21.503Z,10.68
2022-10-31T20:03:49.154Z,10.64
2022-10-31T20:06:23.551Z,10.51
2022-10-31T20:08:50.614Z,10.36
2022-10-31T20:11:17.338Z,10.44
2022-10-31T20:13:44.088Z,10.49
2022-10-31T20:16:12.642Z,10.47
2022-10-31T20:18:39.819Z,10.45
2022-10-31T20:21:18.746Z,10.44
2022-10-31T20:23:47.373Z,10.34
2022-10-31T20:26:17.597Z,10.30
2022-10-31T20:28:44.646Z,10.29
2022-10-31T20:31:14.080Z,10.21
2022-10-31T20:33:40.771Z,10.03
2022-10-31T20:36:08.539Z,9.79
2022-10-31T20:38:39.759Z,9.75
2022-10-31T20:41:09.604Z,9.64
2022-10-31T20:43:36.844Z,9.59
2022-10-31T20:46:10.650Z,9.73
2022-10-31T20:48:37.673Z,9.84
2022-10-31T20:51:07.174Z,9.86
2022-10-31T20:53:34.312Z,9.89
2022-10-31T20:56:10.037Z,9.78
2022-10-31T20:58:38.011Z,9.76
2022-10-31T21:01:07.931Z,9.76
2022-10-31T21:03:36.518Z,9.76
2022-10-31T21:06:05.030Z,9.63
2022-10-31T21:08:32.814Z,9.31
2022-10-31T21:11:00.569Z,9.44
2022-10-31T21:13:31.870Z,9.49
2022-10-31T21:16:06.662Z,9.45
2022-10-31T21:18:37.855Z,9.34
2022-10-31T21:21:14.279Z,9.33
2022-10-31T21:23:42.917Z,9.36
2022-10-31T21:26:17.935Z,9.32
2022-10-31T21:28:44.952Z,9.37
2022-10-31T21:31:14.646Z,9.21
2022-10-31T21:33:41.855Z,9.17
2022-10-31T21:36:09.130Z,9.25
2022-10-31T21:38:36.296Z,9.17
2022-10-31T21:41:06.250Z,9.16
2022-10-31T21:43:36.573Z,9.23
2022-10-31T21:46:17.602Z,9.30
2022-10-31T21:48:45.448Z,9.29
2022-10-31T21:51:24.027Z,9.33
2022-10-31T21:54:09.897Z,9.32
2022-10-31T21:56:36.904Z,9.42
2022-10-31T21:59:05.100Z,9.40
2022-10-31T22:01:32.086Z,9.39
2022-10-31T22:03:59.374Z,9.36
2022-10-31T22:06:27.327Z,9.36
2022-10-31T22:08:54.403Z,9.49
2022-10-31T22:11:21.849Z,9.48
2022-10-31T22:13:49.691Z,9.30
2022-10-31T22:16:18.867Z,9.26
2022-10-31T22:18:46.244Z,9.11
2022-10-31T22:21:18.252Z,9.23
2022-10-31T22:23:53.216Z,9.31
2022-10-31T22:26:19.947Z,9.34
2022-10-31T22:28:49.859Z,9.27
2022-10-31T22:31:18.877Z,9.31
2022-10-31T22:33:46.817Z,9.34
2022-10-31T22:36:16.857Z,9.34
2022-10-31T22:38:44.681Z,9.33
2022-10-31T22:41:16.976Z,9.43
2022-10-31T22:43:43.979Z,9.37
2022-10-31T22:46:20.517Z,9.30
2022-10-31T22:48:49.954Z,9.32
2022-10-31T22:51:21.928Z,9.38
2022-10-31T22:53:49.073Z,9.41
2022-10-31T22:56:19.115Z,9.39
2022-10-31T22:58:46.659Z,9.34
2022-10-31T23:01:15.028Z,9.29
2022-10-31T23:03:42.447Z,9.32
2022-10-31T23:06:12.440Z,9.30
2022-10-31T23:08:39.511Z,9.10
2022-10-31T23:11:48.244Z,9.01
2022-10-31T23:14:20.758Z,9.08
2022-10-31T23:16:55.914Z,9.11
2022-10-31T23:19:31.617Z,9.16
2022-10-31T23:22:04.061Z,9.16
2022-10-31T23:24:41.739Z,9.13
2022-10-31T23:27:17.570Z,9.07
2022-10-31T23:29:57.348Z,9.05
2022-10-31T23:32:25.830Z,9.06
2022-10-31T23:34:57.358Z,8.94
2022-10-31T23:37:26.895Z,8.98
2022-10-31T23:39:53.802Z,9.09
2022-10-31T23:42:21.034Z,9.01
2022-10-31T23:44:47.917Z,9.04
2022-10-31T23:47:15.170Z,9.05
2022-10-31T23:49:41.976Z,9.09
2022-10-31T23:52:09.265Z,9.10
2022-10-31T23:54:36.298Z,8.96
2022-10-31T23:57:03.377Z,8.90
2022-10-31T23:59:30.574Z,8.91
